Time;durP1;ratioP1;P1;durP2;ratioP2;P2;SDS_P1;SDS_P2;PMS_P1;PMS_P2;Temp;Humidity;BMP_temperature;BMP_pressure;BME280_temperature;BME280_humidity;BME280_pressure;Samples;Min_cycle;Max_cycle;Signal;HPM_P1;HPM_P2
2022/11/22 00:01:16;;;;;;;13.25;5.82;;;3.70;99.90;;;;;;5035517;28;20120;-65
2022/11/22 00:03:42;;;;;;;9.38;4.97;;;3.30;99.90;;;;;;5035490;28;20133;-65
2022/11/22 00:06:07;;;;;;;10.98;5.45;;;3.00;99.90;;;;;;5052954;28;20033;-65
2022/11/22 00:08:33;;;;;;;12.25;5.43;;;3.00;99.90;;;;;;5035249;28;20052;-64
2022/11/22 00:10:59;;;;;;;12.35;5.93;;;3.00;99.90;;;;;;5053286;28;20029;-65
2022/11/22 00:13:24;;;;;;;10.73;5.03;;;3.00;99.90;;;;;;5035254;28;20041;-65
2022/11/22 00:15:58;;;;;;;10.05;6.18;;;3.00;99.90;;;;;;5053339;28;20041;-65
2022/11/22 00:18:23;;;;;;;17.52;6.95;;;3.00;99.90;;;;;;5052941;28;20046;-65
2022/11/22 00:20:49;;;;;;;11.93;6.05;;;3.00;99.90;;;;;;5035170;28;20395;-65
2022/11/22 00:23:15;;;;;;;12.10;6.15;;;3.00;99.90;;;;;;5053160;28;20032;-65
2022/11/22 00:25:41;;;;;;;12.25;5.43;;;3.00;99.90;;;;;;5053085;28;20037;-65
2022/11/22 00:28:06;;;;;;;14.88;6.35;;;3.20;99.90;;;;;;5052924;28;20041;-65
2022/11/22 00:30:32;;;;;;;10.02;5.35;;;3.00;99.90;;;;;;5052846;28;20043;-65
2022/11/22 00:32:58;;;;;;;10.77;5.18;;;3.50;99.90;;;;;;5053039;28;20033;-65
2022/11/22 00:35:23;;;;;;;14.55;6.45;;;3.00;99.90;;;;;;5052814;28;20037;-65
2022/11/22 00:37:49;;;;;;;15.45;6.43;;;3.00;99.90;;;;;;5053060;28;20120;-65
2022/11/22 00:40:15;;;;;;;15.85;5.95;;;2.90;99.90;;;;;;5053029;28;20040;-65
2022/11/22 00:42:40;;;;;;;10.85;5.75;;;3.00;99.90;;;;;;5053011;28;20174;-65
2022/11/22 00:45:06;;;;;;;12.77;6.57;;;3.00;99.90;;;;;;5052974;28;20399;-65
2022/11/22 00:47:32;;;;;;;11.73;5.93;;;3.00;99.90;;;;;;5052927;28;20033;-65
2022/11/22 00:49:58;;;;;;;14.35;6.70;;;3.30;99.90;;;;;;5035022;28;20043;-65
2022/11/22 00:52:23;;;;;;;15.13;6.28;;;2.90;99.90;;;;;;5052653;28;20076;-65
2022/11/22 00:54:49;;;;;;;14.60;6.45;;;3.00;99.90;;;;;;5052388;28;20091;-65
2022/11/22 00:57:15;;;;;;;11.73;6.03;;;2.90;99.90;;;;;;5052569;28;20064;-65
2022/11/22 00:59:40;;;;;;;10.68;5.60;;;3.00;99.90;;;;;;5034793;28;20135;-65
2022/11/22 01:02:06;;;;;;;11.90;6.00;;;3.00;99.90;;;;;;5053199;28;20090;-65
2022/11/22 01:04:32;;;;;;;11.30;6.38;;;3.00;99.90;;;;;;5056552;28;20041;-65
2022/11/22 01:06:57;;;;;;;12.75;5.63;;;3.00;99.90;;;;;;5056387;28;20033;-65
2022/11/22 01:09:23;;;;;;;12.20;5.90;;;3.00;99.90;;;;;;5056543;28;20045;-65
2022/11/22 01:11:49;;;;;;;11.65;5.88;;;3.00;99.90;;;;;;5038463;28;20100;-65
2022/11/22 01:14:16;;;;;;;12.38;6.03;;;3.00;99.90;;;;;;5056048;28;20041;-65
2022/11/22 01:16:42;;;;;;;16.83;6.32;;;3.00;99.90;;;;;;5056385;28;20531;-65
2022/11/22 01:19:08;;;;;;;10.25;5.70;;;3.00;99.90;;;;;;5056249;28;20117;-65
2022/11/22 01:21:34;;;;;;;10.23;5.78;;;3.00;99.90;;;;;;5038164;28;20052;-65
2022/11/22 01:24:00;;;;;;;14.63;6.47;;;3.00;99.90;;;;;;5056136;28;20123;-65
2022/11/22 01:26:25;;;;;;;17.65;5.72;;;3.10;99.90;;;;;;5056192;28;20072;-65
2022/11/22 01:28:51;;;;;;;13.10;6.50;;;3.10;99.90;;;;;;5056184;28;20373;-65
2022/11/22 01:31:17;;;;;;;11.52;6.57;;;3.10;99.90;;;;;;5056054;28;20037;-65
2022/11/22 01:33:42;;;;;;;20.17;6.90;;;3.20;99.90;;;;;;5056059;28;20040;-65
2022/11/22 01:36:08;;;;;;;10.95;5.72;;;3.10;99.90;;;;;;5056010;28;20045;-65
2022/11/22 01:38:33;;;;;;;9.85;5.18;;;3.10;99.90;;;;;;5055994;28;20052;-65
2022/11/22 01:40:59;;;;;;;14.85;5.97;;;3.10;99.90;;;;;;5055858;28;20411;-65
2022/11/22 01:43:27;;;;;;;10.98;6.63;;;3.10;99.90;;;;;;5055805;28;20098;-66
2022/11/22 01:45:55;;;;;;;15.07;6.60;;;3.90;99.90;;;;;;5037628;28;20049;-65
2022/11/22 01:48:49;;;;;;;13.52;5.72;;;3.20;99.90;;;;;;5055789;28;20561;-65
2022/11/22 01:51:21;;;;;;;11.63;6.00;;;3.20;99.90;;;;;;5055639;28;20379;-65
2022/11/22 01:53:47;;;;;;;11.18;6.40;;;3.50;99.90;;;;;;5055315;28;20045;-65
2022/11/22 01:56:16;;;;;;;19.65;7.20;;;3.20;99.90;;;;;;5055332;28;20057;-65
2022/11/22 01:58:43;;;;;;;9.77;5.45;;;3.20;99.90;;;;;;5055614;28;20490;-65
2022/11/22 02:01:09;;;;;;;12.07;5.93;;;3.20;99.90;;;;;;5055236;28;20076;-65
2022/11/22 02:03:39;;;;;;;11.50;5.32;;;4.10;99.90;;;;;;5055466;28;20040;-65
2022/11/22 02:06:06;;;;;;;13.07;6.37;;;3.20;99.90;;;;;;5055361;28;20072;-64
2022/11/22 02:08:51;;;;;;;12.25;5.85;;;3.20;99.90;;;;;;5055400;28;20476;-65
2022/11/22 02:11:17;;;;;;;10.85;5.63;;;3.30;99.90;;;;;;5055290;28;20368;-65
2022/11/22 02:13:44;;;;;;;11.45;5.93;;;3.30;99.90;;;;;;5054621;28;20495;-65
2022/11/22 02:16:11;;;;;;;8.57;5.22;;;3.30;99.90;;;;;;5004161;28;20132;-65
2022/11/22 02:18:37;;;;;;;14.30;6.53;;;3.30;99.90;;;;;;5055222;28;20553;-65
2022/11/22 02:21:04;;;;;;;13.35;5.60;;;3.30;99.90;;;;;;5036976;28;20075;-65
2022/11/22 02:23:40;;;;;;;15.57;6.57;;;3.30;99.90;;;;;;5055113;28;20115;-65
2022/11/22 02:26:06;;;;;;;11.13;4.65;;;3.30;99.90;;;;;;5036809;28;20041;-65
2022/11/22 02:28:36;;;;;;;12.57;5.85;;;3.30;99.90;;;;;;5055023;28;20039;-65
2022/11/22 02:31:02;;;;;;;17.05;5.65;;;3.30;99.90;;;;;;5054996;28;20036;-65
2022/11/22 02:33:28;;;;;;;9.73;5.68;;;3.90;99.90;;;;;;5054738;28;20120;-66
2022/11/22 02:35:54;;;;;;;11.20;5.60;;;3.30;99.90;;;;;;5054779;28;20067;-65
2022/11/22 02:38:23;;;;;;;12.82;6.63;;;3.40;99.90;;;;;;5054751;28;20538;-65
2022/11/22 02:40:54;;;;;;;12.27;5.85;;;3.40;99.90;;;;;;5054785;28;20040;-65
2022/11/22 02:43:25;;;;;;;10.63;5.07;;;3.40;99.90;;;;;;5054796;28;20094;-65
2022/11/22 02:45:51;;;;;;;9.55;5.43;;;3.70;99.90;;;;;;5036812;28;20444;-65
2022/11/22 02:48:17;;;;;;;8.10;5.38;;;3.40;99.90;;;;;;5054567;28;20126;-65
2022/11/22 02:50:43;;;;;;;13.60;5.85;;;3.40;99.90;;;;;;5054610;28;20048;-65
2022/11/22 02:53:10;;;;;;;10.95;6.53;;;3.40;99.90;;;;;;5054489;28;20041;-65
2022/11/22 02:55:36;;;;;;;16.48;7.05;;;3.40;99.90;;;;;;5054112;28;20106;-65
2022/11/22 02:58:04;;;;;;;15.02;6.50;;;4.00;99.90;;;;;;5054022;28;20040;-65
2022/11/22 03:00:31;;;;;;;9.35;5.32;;;3.50;99.90;;;;;;5054189;28;20048;-65
2022/11/22 03:02:57;;;;;;;14.77;6.18;;;3.40;99.90;;;;;;5054341;28;20055;-65
2022/11/22 03:05:23;;;;;;;11.63;5.72;;;3.50;99.90;;;;;;5054305;28;20048;-65
2022/11/22 03:07:49;;;;;;;9.75;5.38;;;3.50;99.90;;;;;;5054195;28;20072;-65
2022/11/22 03:10:15;;;;;;;10.00;5.78;;;3.50;99.90;;;;;;5054169;28;20084;-65
2022/11/22 03:12:41;;;;;;;9.13;5.65;;;3.50;99.90;;;;;;5054205;28;20112;-65
2022/11/22 03:15:07;;;;;;;15.20;5.72;;;3.50;99.90;;;;;;5054121;28;20033;-65
2022/11/22 03:17:33;;;;;;;13.60;6.38;;;3.50;99.90;;;;;;5053764;28;20041;-65
2022/11/22 03:19:59;;;;;;;15.40;5.93;;;3.50;99.90;;;;;;5035884;28;20052;-65
2022/11/22 03:22:24;;;;;;;11.05;6.03;;;3.50;99.90;;;;;;5053784;28;20037;-65
2022/11/22 03:24:50;;;;;;;10.57;5.85;;;3.50;99.90;;;;;;5053682;28;20037;-65
2022/11/22 03:27:16;;;;;;;9.40;5.47;;;3.50;99.90;;;;;;5052915;28;20098;-65
2022/11/22 03:29:41;;;;;;;11.95;5.35;;;3.60;99.90;;;;;;5053863;28;20479;-65
2022/11/22 03:32:07;;;;;;;20.40;6.53;;;3.50;99.90;;;;;;5053807;28;20037;-65
2022/11/22 03:34:33;;;;;;;11.75;5.30;;;3.50;99.90;;;;;;5053735;28;20041;-65
2022/11/22 03:36:58;;;;;;;13.05;6.10;;;3.50;99.90;;;;;;5053709;28;20041;-65
2022/11/22 03:39:24;;;;;;;13.35;6.35;;;3.50;99.90;;;;;;5053713;28;20041;-65
2022/11/22 03:41:50;;;;;;;12.93;5.90;;;3.50;99.90;;;;;;5053652;28;20045;-65
2022/11/22 03:44:15;;;;;;;9.13;5.10;;;3.50;99.90;;;;;;5053620;28;20043;-65
2022/11/22 03:46:41;;;;;;;12.13;6.28;;;3.50;99.90;;;;;;5053579;28;20041;-65
2022/11/22 03:49:07;;;;;;;11.82;6.00;;;3.50;99.90;;;;;;5035463;28;20399;-65
2022/11/22 03:51:32;;;;;;;11.38;6.13;;;3.50;99.90;;;;;;5053550;28;20222;-64
2022/11/22 03:53:58;;;;;;;11.02;5.35;;;3.50;99.90;;;;;;5035289;28;20048;-65
2022/11/22 03:56:23;;;;;;;10.43;5.63;;;3.50;99.90;;;;;;5053159;28;20491;-65
2022/11/22 03:58:49;;;;;;;14.13;6.05;;;3.50;99.90;;;;;;5053191;28;20139;-65
2022/11/22 04:01:15;;;;;;;13.63;6.78;;;3.50;99.90;;;;;;5053404;28;20037;-64
2022/11/22 04:03:40;;;;;;;13.57;6.20;;;3.50;99.90;;;;;;5053074;28;20045;-65
2022/11/22 04:06:06;;;;;;;14.50;6.53;;;3.50;99.90;;;;;;5053289;28;20041;-64
2022/11/22 04:08:32;;;;;;;11.35;6.30;;;3.50;99.90;;;;;;5053354;28;20044;-65
2022/11/22 04:10:58;;;;;;;13.98;6.20;;;3.50;99.90;;;;;;5052981;28;20040;-65
2022/11/22 04:15:05;;;;;;;8.23;5.63;;;3.50;99.90;;;;;;5035263;28;20052;-64
2022/11/22 04:16:09;;;;;;;12.02;6.53;;;3.60;99.90;;;;;;5052943;28;20056;-65
2022/11/22 04:18:35;;;;;;;9.88;5.28;;;3.60;99.90;;;;;;5052946;28;20045;-65
2022/11/22 04:25:12;;;;;;;10.30;5.13;;;3.60;99.90;;;;;;5053201;28;20044;-65
2022/11/22 04:26:30;;;;;;;9.45;5.43;;;3.60;99.90;;;;;;5052733;28;20099;-64
2022/11/22 04:28:56;;;;;;;10.02;5.95;;;3.60;99.90;;;;;;5053180;28;20041;-65
2022/11/22 04:34:06;;;;;;;15.35;6.97;;;3.60;99.90;;;;;;5053049;28;20041;-65
2022/11/22 04:36:31;;;;;;;11.82;5.80;;;3.60;99.90;;;;;;5053090;28;20041;-65
2022/11/22 04:38:57;;;;;;;12.35;6.40;;;3.60;99.90;;;;;;5056556;28;20044;-64
2022/11/22 04:41:22;;;;;;;13.88;5.45;;;3.60;99.90;;;;;;5057043;28;20123;-65
2022/11/22 04:46:32;;;;;;;9.20;5.20;;;3.60;99.90;;;;;;5056529;28;20048;-65
2022/11/22 04:48:58;;;;;;;9.10;5.20;;;3.60;99.90;;;;;;5056562;28;20037;-65
2022/11/22 04:54:11;;;;;;;9.43;4.93;;;3.60;99.90;;;;;;5056416;28;20427;-64
2022/11/22 04:56:36;;;;;;;10.13;5.68;;;3.90;99.90;;;;;;5056848;28;20037;-64
2022/11/22 04:59:02;;;;;;;10.43;6.10;;;3.70;99.90;;;;;;5056709;28;20043;-65
2022/11/22 05:01:28;;;;;;;12.23;6.35;;;3.70;99.90;;;;;;5056362;28;20045;-65
2022/11/22 05:03:53;;;;;;;12.48;5.82;;;3.70;99.90;;;;;;5056344;28;20076;-65
2022/11/22 05:06:19;;;;;;;12.15;5.35;;;3.80;99.90;;;;;;5038342;28;20048;-64
2022/11/22 05:08:44;;;;;;;13.55;5.82;;;3.80;99.90;;;;;;5056511;28;20037;-65
2022/11/22 05:11:10;;;;;;;14.45;6.13;;;3.90;99.90;;;;;;5056514;28;20396;-65
2022/11/22 05:13:42;;;;;;;6.95;4.78;;;3.80;99.90;;;;;;5038326;28;20103;-64
2022/11/22 05:16:10;;;;;;;9.68;5.15;;;3.90;99.90;;;;;;5056395;28;20041;-64
2022/11/22 05:18:36;;;;;;;11.70;5.82;;;3.90;99.90;;;;;;5056032;28;20076;-65
2022/11/22 05:21:10;;;;;;;10.10;5.63;;;3.90;99.90;;;;;;5056324;28;20434;-64
2022/11/22 05:23:54;;;;;;;9.43;5.60;;;3.90;99.90;;;;;;5055938;28;20071;-64
2022/11/22 05:26:24;;;;;;;7.85;4.70;;;3.90;99.90;;;;;;5056151;28;20049;-65
2022/11/22 05:28:51;;;;;;;7.53;4.72;;;4.00;99.90;;;;;;5055918;28;20037;-64
2022/11/22 05:31:22;;;;;;;10.40;4.80;;;4.00;99.90;;;;;;5056120;28;20041;-64
2022/11/22 05:33:49;;;;;;;9.60;5.20;;;4.00;99.90;;;;;;5037996;28;20041;-65
2022/11/22 05:36:15;;;;;;;10.98;5.68;;;4.00;99.90;;;;;;5056037;28;20040;-65
2022/11/22 05:38:41;;;;;;;11.70;5.10;;;4.00;99.90;;;;;;5055707;28;20041;-65
2022/11/22 05:41:09;;;;;;;9.02;5.13;;;4.10;99.90;;;;;;5055890;28;20036;-65
2022/11/22 05:43:36;;;;;;;12.30;5.07;;;4.10;99.90;;;;;;5055845;28;20110;-65
2022/11/22 05:46:14;;;;;;;9.57;4.55;;;4.10;99.90;;;;;;5055434;28;20041;-65
2022/11/22 05:48:42;;;;;;;11.20;5.28;;;4.10;99.90;;;;;;5037210;28;20452;-66
2022/11/22 05:51:14;;;;;;;10.25;4.97;;;4.10;99.90;;;;;;5055580;28;20048;-65
2022/11/22 05:53:40;;;;;;;9.07;4.95;;;4.10;99.90;;;;;;5055406;28;20068;-65
2022/11/22 05:56:14;;;;;;;7.35;4.38;;;4.10;99.90;;;;;;5055690;28;20049;-65
2022/11/22 05:58:40;;;;;;;8.98;4.55;;;4.10;99.90;;;;;;5037708;28;20136;-66
2022/11/22 06:01:14;;;;;;;10.55;4.63;;;4.10;99.90;;;;;;5037341;28;20043;-66
2022/11/22 06:03:41;;;;;;;11.32;5.38;;;4.20;99.90;;;;;;5055493;28;20049;-65
2022/11/22 06:06:07;;;;;;;7.88;4.88;;;4.10;99.90;;;;;;5055394;28;20081;-65
2022/11/22 06:08:35;;;;;;;10.82;5.10;;;4.10;99.90;;;;;;5055142;28;20376;-65
2022/11/22 06:11:16;;;;;;;8.57;4.95;;;4.20;99.90;;;;;;5055420;28;20547;-65
2022/11/22 06:13:43;;;;;;;7.73;5.07;;;4.30;99.90;;;;;;5055369;28;20407;-66
2022/11/22 06:16:09;;;;;;;11.80;4.60;;;4.40;99.90;;;;;;5054884;28;20128;-65
2022/11/22 06:18:35;;;;;;;6.90;4.95;;;4.40;99.90;;;;;;5037179;28;20037;-65
2022/11/22 06:21:07;;;;;;;11.90;5.50;;;4.20;99.90;;;;;;5055149;28;20047;-65
2022/11/22 06:23:32;;;;;;;9.52;4.63;;;4.20;99.90;;;;;;5054825;28;20080;-65
2022/11/22 06:26:00;;;;;;;8.90;4.93;;;4.20;99.90;;;;;;5054745;28;20068;-65
2022/11/22 06:28:28;;;;;;;9.07;5.47;;;4.20;99.90;;;;;;5054747;28;20037;-65
2022/11/22 06:30:58;;;;;;;12.55;4.80;;;4.60;99.90;;;;;;5055025;28;20475;-65
2022/11/22 06:33:24;;;;;;;8.27;5.38;;;4.20;99.90;;;;;;5054934;28;20075;-65
2022/11/22 06:35:50;;;;;;;9.25;4.95;;;4.20;99.90;;;;;;5037180;28;20492;-65
2022/11/22 06:38:15;;;;;;;9.48;5.45;;;4.20;99.90;;;;;;5054800;28;20108;-64
2022/11/22 06:40:41;;;;;;;7.65;4.10;;;4.20;99.90;;;;;;5054643;28;20033;-64
2022/11/22 06:43:07;;;;;;;12.63;4.97;;;4.20;99.90;;;;;;5036550;28;20045;-64
2022/11/22 06:45:32;;;;;;;10.98;4.85;;;4.20;99.90;;;;;;5036847;28;20044;-63
2022/11/22 06:47:58;;;;;;;9.35;4.25;;;4.30;99.90;;;;;;5054596;28;20037;-64
2022/11/22 06:50:24;;;;;;;7.22;4.10;;;4.90;99.90;;;;;;5054303;28;20037;-63
2022/11/22 06:52:52;;;;;;;8.18;4.82;;;4.20;99.90;;;;;;5054592;28;20044;-63
2022/11/22 06:55:18;;;;;;;8.60;5.05;;;4.30;99.90;;;;;;5054200;28;20095;-63
2022/11/22 06:57:49;;;;;;;10.63;4.28;;;4.30;99.90;;;;;;5036498;28;20433;-64
2022/11/22 07:00:15;;;;;;;9.43;4.88;;;4.30;99.90;;;;;;5053939;28;20044;-64
2022/11/22 07:02:41;;;;;;;10.98;5.50;;;4.30;99.90;;;;;;5053946;28;20128;-64
2022/11/22 07:05:06;;;;;;;12.07;4.90;;;4.30;99.90;;;;;;5053966;28;20115;-63
2022/11/22 07:07:32;;;;;;;9.18;4.65;;;4.40;99.90;;;;;;5053386;28;20122;-65
2022/11/22 07:09:58;;;;;;;8.98;5.03;;;4.40;99.90;;;;;;5053302;28;20037;-63
2022/11/22 07:12:24;;;;;;;10.90;4.85;;;4.40;99.90;;;;;;5053287;28;20037;-64
2022/11/22 07:14:50;;;;;;;9.20;4.70;;;4.50;99.90;;;;;;5053013;28;20422;-64
2022/11/22 07:17:15;;;;;;;11.43;4.70;;;4.50;99.90;;;;;;5053064;28;20037;-63
2022/11/22 07:19:41;;;;;;;13.05;4.82;;;4.50;99.90;;;;;;5053115;28;20040;-64
2022/11/22 07:22:07;;;;;;;10.45;4.65;;;4.50;99.90;;;;;;5053099;28;20048;-64
2022/11/22 07:24:32;;;;;;;14.63;4.82;;;4.60;99.90;;;;;;5053069;28;20045;-64
2022/11/22 07:26:58;;;;;;;11.27;4.57;;;4.60;99.90;;;;;;5052928;28;20128;-64
2022/11/22 07:29:24;;;;;;;11.45;4.97;;;4.60;99.90;;;;;;5052755;28;20052;-65
2022/11/22 07:31:49;;;;;;;7.15;3.90;;;4.70;99.90;;;;;;5053019;28;20051;-64
2022/11/22 07:34:15;;;;;;;7.72;4.28;;;4.70;99.90;;;;;;5052875;28;20041;-64
2022/11/22 07:36:40;;;;;;;6.18;4.00;;;4.80;99.90;;;;;;5052925;28;20123;-65
2022/11/22 07:39:06;;;;;;;11.68;4.45;;;4.80;99.90;;;;;;5052669;28;20043;-65
2022/11/22 07:41:32;;;;;;;11.27;4.28;;;4.80;99.90;;;;;;5052685;28;20040;-64
2022/11/22 07:43:57;;;;;;;6.55;3.75;;;4.90;99.90;;;;;;5052383;28;20091;-65
2022/11/22 07:46:28;;;;;;;10.20;4.43;;;4.90;99.90;;;;;;5052550;28;20044;-64
2022/11/22 07:48:54;;;;;;;7.80;3.63;;;5.50;99.90;;;;;;5052307;28;20041;-64
2022/11/22 07:51:20;;;;;;;8.75;3.85;;;5.00;99.90;;;;;;5052586;28;20037;-64
2022/11/22 07:53:46;;;;;;;6.60;3.80;;;5.10;99.90;;;;;;5051981;28;20103;-65
2022/11/22 07:56:12;;;;;;;9.82;4.20;;;5.10;99.90;;;;;;5034449;28;20045;-65
2022/11/22 07:58:38;;;;;;;10.05;3.53;;;5.20;99.90;;;;;;5052483;28;20116;-64
2022/11/22 08:01:12;;;;;;;8.73;3.28;;;5.60;99.90;;;;;;5052207;28;20460;-64
2022/11/22 08:03:38;;;;;;;8.35;3.05;;;5.30;99.90;;;;;;5052501;28;20424;-64
2022/11/22 08:06:07;;;;;;;3.72;2.63;;;6.50;99.90;;;;;;5051938;28;20160;-64
2022/11/22 08:08:33;;;;;;;6.50;2.45;;;5.50;99.90;;;;;;5052476;28;20518;-64
2022/11/22 08:10:59;;;;;;;6.53;2.78;;;5.50;99.90;;;;;;5051953;28;20044;-65
2022/11/22 08:13:25;;;;;;;4.60;2.75;;;5.50;99.90;;;;;;5051753;28;20403;-65
2022/11/22 08:15:51;;;;;;;11.68;3.10;;;5.90;99.90;;;;;;5052046;28;20033;-65
2022/11/22 08:18:17;;;;;;;7.40;3.13;;;5.50;99.90;;;;;;5052251;28;20119;-65
2022/11/22 08:20:43;;;;;;;2.92;2.03;;;6.20;99.90;;;;;;5034272;28;20045;-65
2022/11/22 08:23:08;;;;;;;7.47;2.78;;;5.60;99.90;;;;;;5052207;28;20040;-65
2022/11/22 08:25:34;;;;;;;5.47;2.78;;;5.60;99.90;;;;;;5052242;28;20543;-64
2022/11/22 08:28:00;;;;;;;11.93;2.10;;;5.70;99.90;;;;;;5052133;28;20045;-64
2022/11/22 08:30:25;;;;;;;8.18;2.78;;;5.80;99.90;;;;;;5052190;28;20480;-65
2022/11/22 08:32:54;;;;;;;2.70;1.85;;;5.70;99.90;;;;;;5034069;28;20462;-64
2022/11/22 08:35:20;;;;;;;5.40;2.10;;;5.70;99.90;;;;;;5052213;28;20125;-65
2022/11/22 08:37:46;;;;;;;15.02;3.00;;;5.70;99.90;;;;;;5051855;28;20044;-65
2022/11/22 08:40:12;;;;;;;4.63;3.13;;;5.70;99.90;;;;;;5034325;28;20053;-64
2022/11/22 08:42:38;;;;;;;9.00;1.45;;;5.70;99.90;;;;;;5052152;28;20115;-65
2022/11/22 08:45:04;;;;;;;2.08;1.67;;;5.70;99.90;;;;;;5052036;28;20080;-64
2022/11/22 08:47:30;;;;;;;3.90;1.65;;;5.80;99.90;;;;;;5033999;28;20192;-65
2022/11/22 08:49:56;;;;;;;2.78;1.40;;;5.80;99.90;;;;;;5052052;28;20536;-65
2022/11/22 08:52:22;;;;;;;4.18;1.70;;;5.80;99.90;;;;;;5052078;28;20068;-64
2022/11/22 08:54:47;;;;;;;6.20;1.45;;;5.70;99.90;;;;;;5051602;28;20495;-65
2022/11/22 08:57:13;;;;;;;6.47;2.22;;;5.70;99.90;;;;;;5051993;28;20045;-65
2022/11/22 08:59:39;;;;;;;3.65;1.50;;;5.80;99.90;;;;;;5052047;28;20048;-64
2022/11/22 09:02:05;;;;;;;2.85;1.50;;;6.00;99.90;;;;;;5051961;28;20053;-65
2022/11/22 09:04:30;;;;;;;2.42;1.10;;;5.80;99.90;;;;;;5051993;28;20528;-65
2022/11/22 09:06:56;;;;;;;9.38;1.42;;;6.20;99.90;;;;;;5051821;28;20037;-65
2022/11/22 09:09:22;;;;;;;8.23;1.38;;;5.90;99.90;;;;;;5051591;28;20033;-65
2022/11/22 09:11:47;;;;;;;2.92;1.55;;;6.00;99.90;;;;;;5051622;28;20194;-65
2022/11/22 09:14:13;;;;;;;10.13;1.27;;;6.00;99.90;;;;;;5051629;28;20041;-64
2022/11/22 09:16:39;;;;;;;2.47;1.13;;;6.30;99.90;;;;;;5051817;28;20045;-65
2022/11/22 09:19:04;;;;;;;5.75;1.77;;;6.10;99.90;;;;;;5033980;28;20083;-65
2022/11/22 09:21:30;;;;;;;5.20;1.80;;;6.20;99.90;;;;;;5051834;28;20037;-65
2022/11/22 09:23:56;;;;;;;5.65;1.25;;;6.50;99.90;;;;;;5051460;28;20037;-65
2022/11/22 09:26:24;;;;;;;3.40;1.00;;;6.30;99.90;;;;;;5055295;28;20124;-65
2022/11/22 09:28:51;;;;;;;5.85;1.17;;;6.40;99.90;;;;;;5037157;28;20051;-65
2022/11/22 09:31:19;;;;;;;2.83;1.30;;;6.40;99.90;;;;;;5054877;28;20037;-65
2022/11/22 09:33:46;;;;;;;2.17;1.08;;;6.60;99.90;;;;;;5054968;28;20045;-64
2022/11/22 09:36:14;;;;;;;4.22;1.40;;;6.40;99.90;;;;;;5055121;28;20048;-65
2022/11/22 09:38:41;;;;;;;3.38;0.90;;;6.40;99.90;;;;;;5055090;28;20040;-65
2022/11/22 09:41:16;;;;;;;5.22;1.30;;;6.40;99.90;;;;;;5037162;28;20041;-65
2022/11/22 09:44:19;;;;;;;4.57;1.00;;;6.40;99.90;;;;;;5036994;28;20044;-64
2022/11/22 09:46:53;;;;;;;2.80;0.95;;;6.50;99.90;;;;;;5054568;28;20045;-65
2022/11/22 09:49:28;;;;;;;2.65;1.10;;;6.60;99.90;;;;;;5054906;28;20171;-64
2022/11/22 09:52:08;;;;;;;3.63;1.38;;;6.60;99.90;;;;;;5036613;28;20045;-65
2022/11/22 09:54:46;;;;;;;5.05;1.63;;;6.60;99.90;;;;;;5054345;28;20114;-65
2022/11/22 09:57:18;;;;;;;4.82;1.50;;;6.60;99.90;;;;;;5036544;28;20137;-65
2022/11/22 09:59:48;;;;;;;6.13;1.70;;;6.60;99.90;;;;;;5054662;28;20072;-64
2022/11/22 10:02:23;;;;;;;2.42;0.80;;;6.60;99.90;;;;;;5054888;28;20075;-65
2022/11/22 10:04:55;;;;;;;5.00;1.48;;;6.70;99.90;;;;;;5054299;28;20044;-64
2022/11/22 10:07:34;;;;;;;1.98;1.20;;;6.60;99.90;;;;;;5036422;28;20049;-64
2022/11/22 10:10:23;;;;;;;1.95;0.88;;;6.60;99.90;;;;;;5036598;28;20400;-64
2022/11/22 10:13:20;;;;;;;1.88;1.30;;;6.40;99.90;;;;;;5054518;28;20650;-64
2022/11/22 10:15:53;;;;;;;5.60;1.20;;;6.70;99.90;;;;;;5054368;28;20391;-65
2022/11/22 10:18:31;;;;;;;2.72;1.15;;;6.40;99.90;;;;;;5054354;28;20037;-65
2022/11/22 10:20:57;;;;;;;5.10;1.50;;;6.80;99.90;;;;;;5053917;28;20036;-65
2022/11/22 10:23:24;;;;;;;2.88;1.13;;;6.80;99.90;;;;;;5053970;28;20557;-65
2022/11/22 10:26:16;;;;;;;1.65;0.90;;;6.90;99.90;;;;;;5054215;28;20510;-65
2022/11/22 10:29:05;;;;;;;1.00;0.80;;;6.90;99.90;;;;;;5035992;28;20056;-65
2022/11/22 10:31:51;;;;;;;1.85;0.75;;;6.90;99.90;;;;;;5053920;28;20068;-65
2022/11/22 10:34:47;;;;;;;1.88;0.90;;;7.00;99.90;;;;;;5053884;28;20037;-65
2022/11/22 10:37:38;;;;;;;1.77;0.73;;;7.00;99.90;;;;;;5035279;28;20069;-64
2022/11/22 10:40:09;;;;;;;;;;;7.00;99.90;;;;;;5054253;28;20045;-65
2022/11/22 10:42:50;;;;;;;;;;;7.00;99.90;;;;;;5054317;28;19995;-66
2022/11/22 10:45:19;;;;;;;3.08;1.00;;;7.00;99.90;;;;;;5053595;28;20466;-65
2022/11/22 10:47:55;;;;;;;4.78;1.45;;;7.00;99.90;;;;;;5053656;28;20041;-64
2022/11/22 10:50:33;;;;;;;1.52;1.02;;;7.00;99.90;;;;;;5053819;28;20119;-64
2022/11/22 10:53:23;;;;;;;3.70;1.20;;;7.00;99.90;;;;;;5035802;28;20132;-65
2022/11/22 10:56:17;;;;;;;1.70;0.88;;;7.10;99.90;;;;;;5035546;28;20041;-65
2022/11/22 10:58:48;;;;;;;1.00;0.63;;;7.10;99.90;;;;;;5053563;28;20124;-65
2022/11/22 11:01:16;;;;;;;;;;;7.20;99.90;;;;;;5053604;28;20048;-65
2022/11/22 11:03:45;;;;;;;2.28;0.85;;;7.20;99.90;;;;;;5035342;28;19924;-65
2022/11/22 11:06:15;;;;;;;2.83;0.85;;;7.20;99.90;;;;;;5053280;28;20048;-64
2022/11/22 11:08:51;;;;;;;0.63;0.50;;;7.00;99.90;;;;;;5053471;28;20119;-65
2022/11/22 11:11:20;;;;;;;10.82;1.15;;;7.30;99.90;;;;;;5053011;28;20084;-64
2022/11/22 11:13:52;;;;;;;3.22;0.70;;;7.30;99.90;;;;;;5035076;28;20051;-66
2022/11/22 11:16:22;;;;;;;3.00;0.90;;;7.40;99.90;;;;;;5053253;28;20037;-67
2022/11/22 11:19:06;;;;;;;2.28;0.57;;;7.40;99.90;;;;;;5053021;28;20048;-67
2022/11/22 11:21:32;;;;;;;3.22;0.80;;;7.50;99.90;;;;;;5053209;28;20033;-66
2022/11/22 11:23:57;;;;;;;3.80;0.95;;;7.50;99.90;;;;;;5052851;28;20396;-66
2022/11/22 11:26:27;;;;;;;3.38;1.85;;;7.50;99.90;;;;;;5053001;28;20040;-66
2022/11/22 11:29:17;;;;;;;1.85;1.02;;;7.70;99.90;;;;;;5052965;28;20098;-65
2022/11/22 11:31:48;;;;;;;3.28;1.40;;;7.40;99.90;;;;;;5034736;28;20045;-63
2022/11/22 11:34:25;;;;;;;1.15;0.70;;;7.10;99.90;;;;;;5052906;28;20128;-68
2022/11/22 11:36:55;;;;;;;5.57;1.13;;;7.30;99.90;;;;;;5052904;28;20088;-67
2022/11/22 11:39:42;;;;;;;2.83;1.05;;;7.30;99.90;;;;;;5052911;28;20434;-67
2022/11/22 11:42:21;;;;;;;0.88;0.50;;;7.40;99.90;;;;;;5052115;28;20446;-66
2022/11/22 11:44:47;;;;;;;0.88;0.73;;;7.20;99.90;;;;;;5052764;28;20033;-66
2022/11/22 11:47:19;;;;;;;1.48;0.77;;;7.30;99.90;;;;;;5033712;28;20044;-67
2022/11/22 11:49:51;;;;;;;1.10;0.80;;;7.30;99.90;;;;;;5052736;28;20041;-63
2022/11/22 11:52:25;;;;;;;2.58;0.80;;;7.30;99.90;;;;;;5034848;28;20379;-64
2022/11/22 11:54:56;;;;;;;3.03;0.77;;;7.70;99.90;;;;;;5052277;28;20057;-62
2022/11/22 11:57:33;;;;;;;3.33;0.80;;;7.70;99.90;;;;;;5052308;28;20124;-62
2022/11/22 12:00:17;;;;;;;3.47;0.98;;;7.40;99.90;;;;;;5052550;28;20087;-65
2022/11/22 12:02:45;;;;;;;0.65;0.52;;;7.40;99.90;;;;;;5034432;28;20059;-65
2022/11/22 12:05:13;;;;;;;3.20;0.75;;;7.40;99.90;;;;;;5052137;28;20116;-65
2022/11/22 12:07:45;;;;;;;2.28;0.70;;;7.50;99.90;;;;;;5052098;28;20135;-65
2022/11/22 12:10:25;;;;;;;;;;;7.50;99.90;;;;;;5052902;28;20080;-65
2022/11/22 12:13:15;;;;;;;1.27;0.70;;;7.50;99.90;;;;;;5034329;28;19986;-63
2022/11/22 12:16:05;;;;;;;1.52;0.77;;;7.50;99.90;;;;;;5044533;28;20045;-64
2022/11/22 12:18:47;;;;;;;0.80;0.75;;;7.50;99.90;;;;;;5034594;28;20044;-65
2022/11/22 12:21:31;;;;;;;6.78;1.30;;;7.50;99.90;;;;;;5052251;28;20041;-67
2022/11/22 12:24:24;;;;;;;6.22;1.50;;;7.60;99.90;;;;;;5052258;28;20059;-67
2022/11/22 12:26:50;;;;;;;5.28;0.60;;;7.60;99.90;;;;;;5052287;28;20478;-67
2022/11/22 12:29:16;;;;;;;6.75;1.50;;;7.60;99.90;;;;;;5034445;28;20072;-63
2022/11/22 12:31:46;;;;;;;2.65;0.82;;;7.60;99.90;;;;;;5052284;28;20049;-64
2022/11/22 12:34:29;;;;;;;2.13;0.77;;;7.70;99.90;;;;;;5052273;28;20056;-62
2022/11/22 12:37:11;;;;;;;1.92;0.98;;;7.60;99.90;;;;;;5034055;28;20104;-63
2022/11/22 12:39:38;;;;;;;2.60;0.70;;;7.70;99.90;;;;;;5052253;28;20391;-63
2022/11/22 12:42:07;;;;;;;3.95;1.25;;;7.60;99.90;;;;;;5052106;28;20045;-64
2022/11/22 12:44:38;;;;;;;7.03;1.08;;;7.60;99.90;;;;;;5052076;28;20110;-64
2022/11/22 12:47:07;;;;;;;;;;;7.60;99.90;;;;;;5052153;28;20099;-66
2022/11/22 12:49:44;;;;;;;0.82;0.60;;;7.60;99.90;;;;;;5033892;28;19921;-66
2022/11/22 12:52:23;;;;;;;4.82;0.93;;;7.60;99.90;;;;;;5052065;28;20037;-63
2022/11/22 12:54:55;;;;;;;5.78;0.93;;;7.60;99.90;;;;;;5033782;28;20056;-63
2022/11/22 12:57:27;;;;;;;1.92;0.70;;;7.50;99.90;;;;;;5051955;28;20045;-63
2022/11/22 13:00:00;;;;;;;2.30;0.93;;;7.50;99.90;;;;;;5055268;28;20051;-63
2022/11/22 13:02:42;;;;;;;1.58;0.60;;;7.50;99.90;;;;;;5055834;28;20403;-63
2022/11/22 13:05:23;;;;;;;2.03;1.02;;;7.50;99.90;;;;;;5055771;28;20075;-63
2022/11/22 13:08:01;;;;;;;3.97;1.25;;;7.50;99.90;;;;;;5055736;28;20045;-63
2022/11/22 13:10:38;;;;;;;1.52;0.68;;;7.50;99.90;;;;;;5055754;28;20112;-63
2022/11/22 13:13:23;;;;;;;1.15;0.68;;;7.40;99.90;;;;;;5055650;28;20037;-64
2022/11/22 13:15:51;;;;;;;1.50;0.70;;;7.50;99.90;;;;;;5055544;28;20486;-63